Concerto — JJ3855 — position and weather

sailwx.info

Track history (hours):
 
Tides and Currents Weather Stations Pressure Air Temp Water Temp Dewpoint Dewpoint Depression Visibility Wind Speed Wind Dir Waves Ship Positions

Concerto

Last reported at 2016-Dec-07 19:24 UTC. Time now 2016-Dec-07 20:17 UTC.
Position N 34°41' E 135°11'.

Length 74 m; draft 3 m.

Type: Passenger vessel. MMSI: 431000448.

Date/timePositionNaut miles runAvg speedWind from/ knotsBaromVisibWave heightAir tempDewpointWater temp
2016-Dec-07 19:24N 34°41' E 135°11'0 0.0
2016-Dec-07 18:30N 34°41' E 135°11'0 0.0
2016-Dec-07 17:30N 34°41' E 135°11'0 0.0
2016-Dec-07 16:24N 34°41' E 135°11'0 0.0
2016-Dec-07 15:30N 34°41' E 135°11'0 0.0
2016-Dec-07 14:30N 34°41' E 135°11'0 0.0
2016-Dec-07 13:30N 34°41' E 135°11'0 0.0
2016-Dec-07 12:30N 34°41' E 135°11'3 3.4
2016-Dec-07 11:33N 34°38' E 135°10'1 0.8
2016-Dec-07 10:33N 34°38' E 135°09'3 3.0
2016-Dec-07 09:28N 34°41' E 135°11'5 5.1
2016-Dec-07 08:33N 34°37' E 135°07'5 4.7
2016-Dec-07 07:33N 34°41' E 135°11'2 2.3
2016-Dec-07 06:32N 34°38' E 135°11'2 2.4
2016-Dec-07 05:33N 34°41' E 135°11'1 1.4
2016-Dec-07 04:33N 34°39' E 135°11'2 2.1
2016-Dec-07 03:33N 34°38' E 135°09'1 0.1
2016-Dec-06 11:34N 34°38' E 135°11'1 1.3
2016-Dec-06 10:34N 34°38' E 135°09'3 3.0
2016-Dec-06 09:24N 34°41' E 135°11'5 5.8
2016-Dec-06 08:33N 34°37' E 135°08'5 4.8
2016-Dec-06 07:33N 34°41' E 135°11'3 2.6
2016-Dec-06 06:33N 34°38' E 135°11'3 2.5
2016-Dec-06 05:33N 34°41' E 135°11'2 1.8
2016-Dec-06 04:33N 34°39' E 135°11'2 1.9
2016-Dec-06 03:33N 34°38' E 135°09'3 0.2
2016-Dec-05 12:05N 34°41' E 135°11'3 6.1
2016-Dec-05 11:33N 34°38' E 135°10'0 0.3
2016-Dec-05 10:33N 34°38' E 135°10'3 2.9
2016-Dec-05 09:30N 34°41' E 135°11'5 4.9
2016-Dec-05 08:33N 34°37' E 135°08'5 3.2
2016-Dec-05 07:06N 34°41' E 135°11'2 3.9
2016-Dec-05 06:34N 34°39' E 135°11'2 2.2
2016-Dec-05 05:33N 34°41' E 135°11'2 1.6
2016-Dec-05 04:33N 34°39' E 135°11'1 1.4
2016-Dec-05 03:33N 34°38' E 135°10'3 2.4
2016-Dec-05 02:26N 34°41' E 135°11'0 0.0
2016-Dec-05 01:20N 34°41' E 135°11'0 0.0
2016-Dec-05 00:26N 34°41' E 135°11'0 0.0
2016-Dec-04 23:32N 34°41' E 135°11'0 0.0
2016-Dec-04 22:32N 34°41' E 135°11'0 0.0
2016-Dec-04 21:32N 34°41' E 135°11'0 0.0
2016-Dec-04 20:32N 34°41' E 135°11'0 0.0
2016-Dec-04 19:32N 34°41' E 135°11'0 0.0
2016-Dec-04 18:32N 34°41' E 135°11'0 0.0
2016-Dec-04 17:32N 34°41' E 135°11'0 0.0
2016-Dec-04 16:32N 34°41' E 135°11'0 0.0
2016-Dec-04 15:32N 34°41' E 135°11'0 0.0
2016-Dec-04 14:26N 34°41' E 135°11'0 0.0
2016-Dec-04 13:20N 34°41' E 135°11'0 0.0
2016-Dec-04 12:32N 34°41' E 135°11'3 3.0
2016-Dec-04 11:33N 34°38' E 135°10'1 0.6
2016-Dec-04 10:33N 34°38' E 135°09'3 3.0
2016-Dec-04 09:26N 34°41' E 135°11'5 5.6
2016-Dec-04 08:33N 34°37' E 135°07'5 4.9
2016-Dec-04 07:32N 34°41' E 135°11'3 2.6
2016-Dec-04 06:33N 34°38' E 135°11'3 2.5
2016-Dec-04 05:33N 34°41' E 135°11'2 1.8
2016-Dec-04 04:33N 34°39' E 135°11'2 2.3
2016-Dec-04 03:33N 34°38' E 135°09'4 3.4
2016-Dec-04 02:30N 34°41' E 135°11'0 0.0
2016-Dec-03 12:07N 34°41' E 135°11'3 5.6
2016-Dec-03 11:33N 34°38' E 135°10'0 0.3
2016-Dec-03 10:33N 34°38' E 135°09'3 2.7
2016-Dec-03 09:22N 34°41' E 135°11'5 6.1
2016-Dec-03 08:33N 34°37' E 135°07'5 4.7
2016-Dec-03 07:31N 34°41' E 135°11'2 2.3
2016-Dec-03 06:33N 34°39' E 135°11'2 2.2
2016-Dec-03 05:32N 34°41' E 135°11'1 1.4
2016-Dec-03 04:33N 34°39' E 135°11'2 2.3
2016-Dec-03 03:33N 34°38' E 135°09'3 2.7
2016-Dec-03 02:19N 34°41' E 135°11'0 0.0
2016-Dec-03 01:31N 34°41' E 135°11'0 0.0
2016-Dec-03 00:31N 34°41' E 135°11'0 0.0
2016-Dec-02 23:31N 34°41' E 135°11'0 0.0
2016-Dec-02 22:31N 34°41' E 135°11'0 0.0
2016-Dec-02 21:19N 34°41' E 135°11'0 0.0
2016-Dec-02 20:31N 34°41' E 135°11'0 0.0
2016-Dec-02 19:07N 34°41' E 135°11'0 0.0
2016-Dec-02 18:31N 34°41' E 135°11'0 0.0
2016-Dec-02 17:31N 34°41' E 135°11'0 0.0
2016-Dec-02 16:31N 34°41' E 135°11'0 0.0
2016-Dec-02 15:31N 34°41' E 135°11'0 0.0
2016-Dec-02 14:31N 34°41' E 135°11'0 0.0
2016-Dec-02 13:31N 34°41' E 135°11'0 0.0
2016-Dec-02 12:31N 34°41' E 135°11'3 3.3
2016-Dec-02 11:33N 34°38' E 135°11'1 1.2
2016-Dec-02 10:33N 34°38' E 135°09'3 2.8
2016-Dec-02 09:24N 34°41' E 135°11'5 5.8
2016-Dec-02 08:34N 34°37' E 135°07'5 4.8
2016-Dec-02 07:32N 34°41' E 135°11'3 2.8
2016-Dec-02 06:33N 34°38' E 135°11'3 2.7
2016-Dec-02 05:34N 34°41' E 135°11'2 1.8
2016-Dec-02 04:33N 34°39' E 135°11'2 2.1
2016-Dec-02 03:33N 34°38' E 135°09'3 2.7
2016-Dec-02 02:20N 34°41' E 135°11'0 0.0
2016-Dec-02 01:20N 34°41' E 135°11'0 0.0
2016-Dec-02 00:26N 34°41' E 135°11'0 0.0
2016-Dec-01 23:32N 34°41' E 135°11'0 0.0
2016-Dec-01 22:20N 34°41' E 135°11'0 0.0
2016-Dec-01 20:32N 34°41' E 135°11'0 0.0
2016-Dec-01 19:32N 34°41' E 135°11'0 0.0
2016-Dec-01 18:32N 34°41' E 135°11'0 0.0
2016-Dec-01 17:20N 34°41' E 135°11'0 0.0
2016-Dec-01 16:32N 34°41' E 135°11'0 0.0
2016-Dec-01 15:32N 34°41' E 135°11'0 0.0
2016-Dec-01 14:26N 34°41' E 135°11'0 0.0
2016-Dec-01 13:26N 34°41' E 135°11'0 0.0
2016-Dec-01 12:32N 34°41' E 135°11'3 3.3
2016-Dec-01 11:33N 34°38' E 135°10'1 0.9
2016-Dec-01 10:33N 34°38' E 135°09'3 2.8
2016-Dec-01 09:20N 34°41' E 135°11'5 6.1
2016-Dec-01 08:33N 34°37' E 135°07'5 4.7
2016-Dec-01 07:34N 34°41' E 135°11'2 2.4
2016-Dec-01 06:34N 34°38' E 135°11'2 2.4
2016-Dec-01 05:33N 34°41' E 135°11'2 1.6
2016-Dec-01 04:33N 34°39' E 135°11'2 2.1
2016-Dec-01 03:33N 34°38' E 135°09'3 3.0
2016-Dec-01 02:30N 34°41' E 135°11'0 0.0
2016-Dec-01 01:30N 34°41' E 135°11'0 0.0
2016-Dec-01 00:24N 34°41' E 135°11'0 0.0
2016-Nov-30 23:30N 34°41' E 135°11'0 0.0
2016-Nov-30 22:30N 34°41' E 135°11'0 0.0
2016-Nov-30 21:30N 34°41' E 135°11'0 0.0
2016-Nov-30 20:30N 34°41' E 135°11'0 0.0
2016-Nov-30 19:30N 34°41' E 135°11'0 0.0
2016-Nov-30 18:24N 34°41' E 135°11'0 0.0
2016-Nov-30 17:30N 34°41' E 135°11'0 0.0
2016-Nov-30 16:30N 34°41' E 135°11'0 0.0
2016-Nov-30 15:30N 34°41' E 135°11'0 0.0
2016-Nov-30 14:30N 34°41' E 135°11'0 0.0
2016-Nov-30 13:30N 34°41' E 135°11'0 0.0
2016-Nov-30 12:30N 34°41' E 135°11'4 3.8
2016-Nov-30 11:32N 34°38' E 135°09'1 0.6
2016-Nov-30 10:33N 34°38' E 135°09'3 3.2
2016-Nov-30 09:31N 34°41' E 135°11'5 5.2
2016-Nov-30 08:33N 34°37' E 135°07'5 5.0
2016-Nov-30 07:33N 34°41' E 135°11'3 2.6
2016-Nov-30 06:34N 34°38' E 135°11'3 2.5
2016-Nov-30 05:33N 34°41' E 135°11'2 1.8
2016-Nov-30 04:33N 34°39' E 135°11'2 1.6
2016-Nov-30 03:30N 34°38' E 135°10'3 2.9
2016-Nov-30 02:27N 34°41' E 135°11'0 0.0
2016-Nov-29 12:05N 34°41' E 135°11'3 6.1
2016-Nov-29 11:33N 34°38' E 135°10'0 0.4
2016-Nov-29 10:33N 34°38' E 135°10'3 2.8
2016-Nov-29 09:31N 34°41' E 135°11'5 5.2
2016-Nov-29 08:33N 34°37' E 135°07'5 5.0
2016-Nov-29 07:33N 34°41' E 135°11'2 2.4
2016-Nov-29 06:33N 34°38' E 135°11'2 2.3
2016-Nov-29 05:33N 34°41' E 135°11'2 2.0
2016-Nov-29 04:33N 34°39' E 135°11'2 2.0
2016-Nov-29 03:33N 34°38' E 135°09'3 3.2
2016-Nov-29 02:30N 34°41' E 135°11'0 0.0
2016-Nov-29 01:29N 34°41' E 135°11'0 0.0
2016-Nov-28 23:23N 34°41' E 135°11'0 0.0
2016-Nov-28 22:17N 34°41' E 135°11'0 0.0
2016-Nov-28 21:29N 34°41' E 135°11'0 0.0
2016-Nov-28 20:23N 34°41' E 135°11'0 0.0
2016-Nov-28 19:23N 34°41' E 135°11'0 0.0
2016-Nov-28 18:29N 34°41' E 135°11'0 0.0
2016-Nov-28 17:23N 34°41' E 135°11'0 0.0
2016-Nov-28 16:29N 34°41' E 135°11'0 0.0
2016-Nov-28 15:29N 34°41' E 135°11'0 0.0
2016-Nov-28 14:23N 34°41' E 135°11'0 0.0
2016-Nov-28 13:29N 34°41' E 135°11'0 0.0
2016-Nov-28 12:29N 34°41' E 135°11'3 3.5
2016-Nov-28 11:33N 34°38' E 135°10'1 0.9
2016-Nov-28 10:33N 34°38' E 135°09'3 3.3
2016-Nov-28 09:31N 34°41' E 135°11'5 5.3
2016-Nov-28 08:33N 34°37' E 135°07'5 5.0
2016-Nov-28 07:32N 34°41' E 135°11'2 2.2
2016-Nov-28 06:33N 34°39' E 135°11'2 2.2
2016-Nov-28 05:33N 34°41' E 135°11'2 1.8
2016-Nov-28 04:33N 34°39' E 135°11'2 2.1
2016-Nov-28 03:33N 34°37' E 135°10'4 3.6
2016-Nov-28 02:33N 34°41' E 135°11'  
Track history (hours):
 
Tides and Currents Weather Stations Pressure Air Temp Water Temp Dewpoint Dewpoint Depression Visibility Wind Speed Wind Dir Waves Ship Positions

Concerto

Last reported at 2016-Dec-07 19:24 UTC. Time now 2016-Dec-07 20:17 UTC.
Position N 34°41' E 135°11'.

Length 74 m; draft 3 m.

Type: Passenger vessel. MMSI: 431000448.

Date/timePositionNaut miles runAvg speedWind from/ knotsBaromVisibWave heightAir tempDewpointWater temp
2016-Dec-07 19:24N 34°41' E 135°11'0 0.0
2016-Dec-07 18:30N 34°41' E 135°11'0 0.0
2016-Dec-07 17:30N 34°41' E 135°11'0 0.0
2016-Dec-07 16:24N 34°41' E 135°11'0 0.0
2016-Dec-07 15:30N 34°41' E 135°11'0 0.0
2016-Dec-07 14:30N 34°41' E 135°11'0 0.0
2016-Dec-07 13:30N 34°41' E 135°11'0 0.0
2016-Dec-07 12:30N 34°41' E 135°11'3 3.4
2016-Dec-07 11:33N 34°38' E 135°10'1 0.8
2016-Dec-07 10:33N 34°38' E 135°09'3 3.0
2016-Dec-07 09:28N 34°41' E 135°11'5 5.1
2016-Dec-07 08:33N 34°37' E 135°07'5 4.7
2016-Dec-07 07:33N 34°41' E 135°11'2 2.3
2016-Dec-07 06:32N 34°38' E 135°11'2 2.4
2016-Dec-07 05:33N 34°41' E 135°11'1 1.4
2016-Dec-07 04:33N 34°39' E 135°11'2 2.1
2016-Dec-07 03:33N 34°38' E 135°09'1 0.1
2016-Dec-06 11:34N 34°38' E 135°11'1 1.3
2016-Dec-06 10:34N 34°38' E 135°09'3 3.0
2016-Dec-06 09:24N 34°41' E 135°11'5 5.8
2016-Dec-06 08:33N 34°37' E 135°08'5 4.8
2016-Dec-06 07:33N 34°41' E 135°11'3 2.6
2016-Dec-06 06:33N 34°38' E 135°11'3 2.5
2016-Dec-06 05:33N 34°41' E 135°11'2 1.8
2016-Dec-06 04:33N 34°39' E 135°11'2 1.9
2016-Dec-06 03:33N 34°38' E 135°09'3 0.2
2016-Dec-05 12:05N 34°41' E 135°11'3 6.1
2016-Dec-05 11:33N 34°38' E 135°10'0 0.3
2016-Dec-05 10:33N 34°38' E 135°10'3 2.9
2016-Dec-05 09:30N 34°41' E 135°11'5 4.9
2016-Dec-05 08:33N 34°37' E 135°08'5 3.2
2016-Dec-05 07:06N 34°41' E 135°11'2 3.9
2016-Dec-05 06:34N 34°39' E 135°11'2 2.2
2016-Dec-05 05:33N 34°41' E 135°11'2 1.6
2016-Dec-05 04:33N 34°39' E 135°11'1 1.4
2016-Dec-05 03:33N 34°38' E 135°10'3 2.4
2016-Dec-05 02:26N 34°41' E 135°11'0 0.0
2016-Dec-05 01:20N 34°41' E 135°11'0 0.0
2016-Dec-05 00:26N 34°41' E 135°11'0 0.0
2016-Dec-04 23:32N 34°41' E 135°11'0 0.0
2016-Dec-04 22:32N 34°41' E 135°11'0 0.0
2016-Dec-04 21:32N 34°41' E 135°11'0 0.0
2016-Dec-04 20:32N 34°41' E 135°11'0 0.0
2016-Dec-04 19:32N 34°41' E 135°11'0 0.0
2016-Dec-04 18:32N 34°41' E 135°11'0 0.0
2016-Dec-04 17:32N 34°41' E 135°11'0 0.0
2016-Dec-04 16:32N 34°41' E 135°11'0 0.0
2016-Dec-04 15:32N 34°41' E 135°11'0 0.0
2016-Dec-04 14:26N 34°41' E 135°11'0 0.0
2016-Dec-04 13:20N 34°41' E 135°11'0 0.0
2016-Dec-04 12:32N 34°41' E 135°11'3 3.0
2016-Dec-04 11:33N 34°38' E 135°10'1 0.6
2016-Dec-04 10:33N 34°38' E 135°09'3 3.0
2016-Dec-04 09:26N 34°41' E 135°11'5 5.6
2016-Dec-04 08:33N 34°37' E 135°07'5 4.9
2016-Dec-04 07:32N 34°41' E 135°11'3 2.6
2016-Dec-04 06:33N 34°38' E 135°11'3 2.5
2016-Dec-04 05:33N 34°41' E 135°11'2 1.8
2016-Dec-04 04:33N 34°39' E 135°11'2 2.3
2016-Dec-04 03:33N 34°38' E 135°09'4 3.4
2016-Dec-04 02:30N 34°41' E 135°11'0 0.0
2016-Dec-03 12:07N 34°41' E 135°11'3 5.6
2016-Dec-03 11:33N 34°38' E 135°10'0 0.3
2016-Dec-03 10:33N 34°38' E 135°09'3 2.7
2016-Dec-03 09:22N 34°41' E 135°11'5 6.1
2016-Dec-03 08:33N 34°37' E 135°07'5 4.7
2016-Dec-03 07:31N 34°41' E 135°11'2 2.3
2016-Dec-03 06:33N 34°39' E 135°11'2 2.2
2016-Dec-03 05:32N 34°41' E 135°11'1 1.4
2016-Dec-03 04:33N 34°39' E 135°11'2 2.3
2016-Dec-03 03:33N 34°38' E 135°09'3 2.7
2016-Dec-03 02:19N 34°41' E 135°11'0 0.0
2016-Dec-03 01:31N 34°41' E 135°11'0 0.0
2016-Dec-03 00:31N 34°41' E 135°11'0 0.0
2016-Dec-02 23:31N 34°41' E 135°11'0 0.0
2016-Dec-02 22:31N 34°41' E 135°11'0 0.0
2016-Dec-02 21:19N 34°41' E 135°11'0 0.0
2016-Dec-02 20:31N 34°41' E 135°11'0 0.0
2016-Dec-02 19:07N 34°41' E 135°11'0 0.0
2016-Dec-02 18:31N 34°41' E 135°11'0 0.0
2016-Dec-02 17:31N 34°41' E 135°11'0 0.0
2016-Dec-02 16:31N 34°41' E 135°11'0 0.0
2016-Dec-02 15:31N 34°41' E 135°11'0 0.0
2016-Dec-02 14:31N 34°41' E 135°11'0 0.0
2016-Dec-02 13:31N 34°41' E 135°11'0 0.0
2016-Dec-02 12:31N 34°41' E 135°11'3 3.3
2016-Dec-02 11:33N 34°38' E 135°11'1 1.2
2016-Dec-02 10:33N 34°38' E 135°09'3 2.8
2016-Dec-02 09:24N 34°41' E 135°11'5 5.8
2016-Dec-02 08:34N 34°37' E 135°07'5 4.8
2016-Dec-02 07:32N 34°41' E 135°11'3 2.8
2016-Dec-02 06:33N 34°38' E 135°11'3 2.7
2016-Dec-02 05:34N 34°41' E 135°11'2 1.8
2016-Dec-02 04:33N 34°39' E 135°11'2 2.1
2016-Dec-02 03:33N 34°38' E 135°09'3 2.7
2016-Dec-02 02:20N 34°41' E 135°11'0 0.0
2016-Dec-02 01:20N 34°41' E 135°11'0 0.0
2016-Dec-02 00:26N 34°41' E 135°11'0 0.0
2016-Dec-01 23:32N 34°41' E 135°11'0 0.0
2016-Dec-01 22:20N 34°41' E 135°11'0 0.0
2016-Dec-01 20:32N 34°41' E 135°11'0 0.0
2016-Dec-01 19:32N 34°41' E 135°11'0 0.0
2016-Dec-01 18:32N 34°41' E 135°11'0 0.0
2016-Dec-01 17:20N 34°41' E 135°11'0 0.0
2016-Dec-01 16:32N 34°41' E 135°11'0 0.0
2016-Dec-01 15:32N 34°41' E 135°11'0 0.0
2016-Dec-01 14:26N 34°41' E 135°11'0 0.0
2016-Dec-01 13:26N 34°41' E 135°11'0 0.0
2016-Dec-01 12:32N 34°41' E 135°11'3 3.3
2016-Dec-01 11:33N 34°38' E 135°10'1 0.9
2016-Dec-01 10:33N 34°38' E 135°09'3 2.8
2016-Dec-01 09:20N 34°41' E 135°11'5 6.1
2016-Dec-01 08:33N 34°37' E 135°07'5 4.7
2016-Dec-01 07:34N 34°41' E 135°11'2 2.4
2016-Dec-01 06:34N 34°38' E 135°11'2 2.4
2016-Dec-01 05:33N 34°41' E 135°11'2 1.6
2016-Dec-01 04:33N 34°39' E 135°11'2 2.1
2016-Dec-01 03:33N 34°38' E 135°09'3 3.0
2016-Dec-01 02:30N 34°41' E 135°11'0 0.0
2016-Dec-01 01:30N 34°41' E 135°11'0 0.0
2016-Dec-01 00:24N 34°41' E 135°11'0 0.0
2016-Nov-30 23:30N 34°41' E 135°11'0 0.0
2016-Nov-30 22:30N 34°41' E 135°11'0 0.0
2016-Nov-30 21:30N 34°41' E 135°11'0 0.0
2016-Nov-30 20:30N 34°41' E 135°11'0 0.0
2016-Nov-30 19:30N 34°41' E 135°11'0 0.0
2016-Nov-30 18:24N 34°41' E 135°11'0 0.0
2016-Nov-30 17:30N 34°41' E 135°11'0 0.0
2016-Nov-30 16:30N 34°41' E 135°11'0 0.0
2016-Nov-30 15:30N 34°41' E 135°11'0 0.0
2016-Nov-30 14:30N 34°41' E 135°11'0 0.0
2016-Nov-30 13:30N 34°41' E 135°11'0 0.0
2016-Nov-30 12:30N 34°41' E 135°11'4 3.8
2016-Nov-30 11:32N 34°38' E 135°09'1 0.6
2016-Nov-30 10:33N 34°38' E 135°09'3 3.2
2016-Nov-30 09:31N 34°41' E 135°11'5 5.2
2016-Nov-30 08:33N 34°37' E 135°07'5 5.0
2016-Nov-30 07:33N 34°41' E 135°11'3 2.6
2016-Nov-30 06:34N 34°38' E 135°11'3 2.5
2016-Nov-30 05:33N 34°41' E 135°11'2 1.8
2016-Nov-30 04:33N 34°39' E 135°11'2 1.6
2016-Nov-30 03:30N 34°38' E 135°10'3 2.9
2016-Nov-30 02:27N 34°41' E 135°11'0 0.0
2016-Nov-29 12:05N 34°41' E 135°11'3 6.1
2016-Nov-29 11:33N 34°38' E 135°10'0 0.4
2016-Nov-29 10:33N 34°38' E 135°10'3 2.8
2016-Nov-29 09:31N 34°41' E 135°11'5 5.2
2016-Nov-29 08:33N 34°37' E 135°07'5 5.0
2016-Nov-29 07:33N 34°41' E 135°11'2 2.4
2016-Nov-29 06:33N 34°38' E 135°11'2 2.3
2016-Nov-29 05:33N 34°41' E 135°11'2 2.0
2016-Nov-29 04:33N 34°39' E 135°11'2 2.0
2016-Nov-29 03:33N 34°38' E 135°09'3 3.2
2016-Nov-29 02:30N 34°41' E 135°11'0 0.0
2016-Nov-29 01:29N 34°41' E 135°11'0 0.0
2016-Nov-28 23:23N 34°41' E 135°11'0 0.0
2016-Nov-28 22:17N 34°41' E 135°11'0 0.0
2016-Nov-28 21:29N 34°41' E 135°11'0 0.0
2016-Nov-28 20:23N 34°41' E 135°11'0 0.0
2016-Nov-28 19:23N 34°41' E 135°11'0 0.0
2016-Nov-28 18:29N 34°41' E 135°11'0 0.0
2016-Nov-28 17:23N 34°41' E 135°11'0 0.0
2016-Nov-28 16:29N 34°41' E 135°11'0 0.0
2016-Nov-28 15:29N 34°41' E 135°11'0 0.0
2016-Nov-28 14:23N 34°41' E 135°11'0 0.0
2016-Nov-28 13:29N 34°41' E 135°11'0 0.0
2016-Nov-28 12:29N 34°41' E 135°11'3 3.5
2016-Nov-28 11:33N 34°38' E 135°10'1 0.9
2016-Nov-28 10:33N 34°38' E 135°09'3 3.3
2016-Nov-28 09:31N 34°41' E 135°11'5 5.3
2016-Nov-28 08:33N 34°37' E 135°07'5 5.0
2016-Nov-28 07:32N 34°41' E 135°11'2 2.2
2016-Nov-28 06:33N 34°39' E 135°11'2 2.2
2016-Nov-28 05:33N 34°41' E 135°11'2 1.8
2016-Nov-28 04:33N 34°39' E 135°11'2 2.1
2016-Nov-28 03:33N 34°37' E 135°10'4 3.6
2016-Nov-28 02:33N 34°41' E 135°11'  

Dump ship's entire track history